Time;durP1;ratioP1;P1;durP2;ratioP2;P2;SDS_P1;SDS_P2;PMS_P1;PMS_P2;Temp;Humidity;BMP_temperature;BMP_pressure;BME280_temperature;BME280_humidity;BME280_pressure;Samples;Min_cycle;Max_cycle;Signal;HPM_P1;HPM_P2
2022/08/27 00:01:21;;;;;;;0.00;0.00;;;;;;;;;;5048580;28;20473;-59
2022/08/27 00:03:46;;;;;;;0.00;0.00;;;;;;;;;;5049600;28;20264;-59
2022/08/27 00:06:13;;;;;;;0.00;0.00;;;;;;;;;;5049772;28;20021;-59
2022/08/27 00:08:39;;;;;;;0.77;0.77;;;;;;;;;;5048070;28;20310;-60
2022/08/27 00:11:04;;;;;;;0.05;0.05;;;;;;;;;;5049693;28;20025;-59
2022/08/27 00:13:29;;;;;;;2.55;2.17;;;;;;;;;;5049368;28;20083;-59
2022/08/27 00:15:55;;;;;;;1.73;0.77;;;;;;;;;;5049449;28;20541;-60
2022/08/27 00:18:20;;;;;;;0.00;0.00;;;;;;;;;;5049773;28;20437;-58
2022/08/27 00:20:45;;;;;;;0.00;0.00;;;;;;;;;;5049188;28;20031;-59
2022/08/27 00:23:10;;;;;;;0.00;0.00;;;;;;;;;;5049491;28;20116;-59
2022/08/27 00:25:36;;;;;;;0.00;0.00;;;;;;;;;;5049601;28;20112;-60
2022/08/27 00:28:01;;;;;;;1.38;0.75;;;;;;;;;;5049202;28;20036;-59
2022/08/27 00:30:26;;;;;;;0.00;0.00;;;;;;;;;;5047753;28;20020;-60
2022/08/27 00:32:51;;;;;;;0.00;0.00;;;;;;;;;;5048249;28;20385;-60
2022/08/27 00:35:17;;;;;;;0.00;0.00;;;;;;;;;;5049208;28;20021;-59
2022/08/27 00:37:42;;;;;;;0.00;0.00;;;;;;;;;;5048364;28;20025;-59
2022/08/27 00:40:09;;;;;;;0.00;0.00;;;;;;;;;;5050542;28;20066;-59
2022/08/27 00:42:34;;;;;;;0.00;0.00;;;;;;;;;;5048981;28;20358;-58
2022/08/27 00:45:00;;;;;;;0.00;0.00;;;;;;;;;;5048476;28;20146;-59
2022/08/27 00:47:26;;;;;;;0.00;0.00;;;;;;;;;;5049347;28;20100;-60
2022/08/27 00:50:01;;;;;;;0.00;0.00;;;;;;;;;;5048505;28;20037;-59
2022/08/27 00:52:28;;;;;;;0.00;0.00;;;;;;;;;;5049000;28;20098;-60
2022/08/27 00:54:57;;;;;;;0.00;0.00;;;;;;;;;;5048487;28;20070;-59
2022/08/27 00:57:22;;;;;;;;;;;;;;;;;;5048993;28;20047;-59
2022/08/27 00:59:47;;;;;;;0.83;0.57;;;;;;;;;;5047571;28;19908;-60
2022/08/27 01:02:19;;;;;;;0.00;0.00;;;;;;;;;;5048740;28;20810;-58
2022/08/27 01:04:47;;;;;;;0.00;0.00;;;;;;;;;;5048428;28;20032;-59
2022/08/27 01:07:13;;;;;;;0.63;0.63;;;;;;;;;;5048538;28;20037;-59
2022/08/27 01:09:40;;;;;;;0.00;0.00;;;;;;;;;;5049175;28;20020;-60
2022/08/27 01:12:06;;;;;;;0.00;0.00;;;;;;;;;;5048316;28;20114;-59
2022/08/27 01:14:31;;;;;;;0.00;0.00;;;;;;;;;;5048480;28;20490;-60
2022/08/27 01:16:58;;;;;;;0.00;0.00;;;;;;;;;;5048169;28;20024;-57
2022/08/27 01:19:27;;;;;;;0.10;0.10;;;;;;;;;;5048477;28;20052;-59
2022/08/27 01:21:56;;;;;;;0.32;0.32;;;;;;;;;;5048352;28;20103;-59
2022/08/27 01:24:21;;;;;;;;;;;;;;;;;;5049269;28;20474;-59
2022/08/27 01:26:47;;;;;;;0.00;0.00;;;;;;;;;;5048450;28;19920;-60
2022/08/27 01:29:13;;;;;;;0.10;0.10;;;;;;;;;;5047396;28;20021;-59
2022/08/27 01:31:38;;;;;;;0.00;0.00;;;;;;;;;;5048984;28;20021;-59
2022/08/27 01:34:04;;;;;;;0.00;0.00;;;;;;;;;;5048033;28;20035;-59
2022/08/27 01:36:30;;;;;;;0.00;0.00;;;;;;;;;;5048392;28;20665;-59
2022/08/27 01:38:55;;;;;;;0.20;0.20;;;;;;;;;;5048152;28;20115;-58
2022/08/27 01:41:20;;;;;;;0.28;0.28;;;;;;;;;;5048507;28;20009;-58
2022/08/27 01:43:46;;;;;;;0.22;0.22;;;;;;;;;;5048335;28;20860;-59
2022/08/27 01:46:11;;;;;;;0.57;0.57;;;;;;;;;;5052663;28;20047;-59
2022/08/27 01:48:36;;;;;;;1.17;0.40;;;;;;;;;;5052565;28;20029;-59
2022/08/27 01:51:02;;;;;;;0.00;0.00;;;;;;;;;;5051926;28;20037;-60
2022/08/27 01:53:27;;;;;;;0.00;0.00;;;;;;;;;;5052060;28;20283;-60
2022/08/27 01:55:53;;;;;;;0.70;0.70;;;;;;;;;;5051491;28;20074;-60
2022/08/27 01:58:20;;;;;;;0.15;0.15;;;;;;;;;;5051075;28;20040;-60
2022/08/27 02:00:47;;;;;;;0.00;0.00;;;;;;;;;;5050336;28;20013;-59
2022/08/27 02:03:12;;;;;;;0.00;0.00;;;;;;;;;;5052395;28;20028;-59
2022/08/27 02:05:38;;;;;;;0.00;0.00;;;;;;;;;;5051853;28;20432;-59
2022/08/27 02:08:03;;;;;;;0.43;0.43;;;;;;;;;;5051608;28;20043;-57
2022/08/27 02:10:31;;;;;;;0.00;0.00;;;;;;;;;;5052087;28;20029;-58
2022/08/27 02:12:56;;;;;;;0.00;0.00;;;;;;;;;;5051507;28;20021;-59
2022/08/27 02:15:22;;;;;;;0.00;0.00;;;;;;;;;;5051919;28;20013;-60
2022/08/27 02:17:48;;;;;;;0.22;0.22;;;;;;;;;;5051246;28;20040;-58
2022/08/27 02:20:13;;;;;;;0.00;0.00;;;;;;;;;;5051954;28;20024;-59
2022/08/27 02:22:39;;;;;;;0.00;0.00;;;;;;;;;;5051901;28;20028;-60
2022/08/27 02:25:05;;;;;;;0.20;0.20;;;;;;;;;;5050330;28;20096;-60
2022/08/27 02:27:31;;;;;;;0.00;0.00;;;;;;;;;;5050395;28;20055;-59
2022/08/27 02:29:56;;;;;;;0.00;0.00;;;;;;;;;;5051325;28;20036;-59
2022/08/27 02:32:22;;;;;;;0.00;0.00;;;;;;;;;;5051614;28;20028;-59
2022/08/27 02:34:47;;;;;;;0.08;0.08;;;;;;;;;;5051216;28;20023;-60
2022/08/27 02:37:13;;;;;;;0.00;0.00;;;;;;;;;;5051395;28;20017;-59
2022/08/27 02:39:38;;;;;;;0.00;0.00;;;;;;;;;;5051202;28;20024;-59
2022/08/27 02:42:03;;;;;;;0.00;0.00;;;;;;;;;;5050700;28;20029;-59
2022/08/27 02:44:30;;;;;;;2.45;1.52;;;;;;;;;;5051191;28;20029;-60
2022/08/27 02:46:56;;;;;;;1.10;1.10;;;;;;;;;;5050966;28;20052;-58
2022/08/27 02:49:21;;;;;;;0.80;0.35;;;;;;;;;;5051198;28;20063;-59
2022/08/27 02:51:46;;;;;;;0.00;0.00;;;;;;;;;;5050459;28;20052;-58
2022/08/27 02:54:11;;;;;;;0.00;0.00;;;;;;;;;;5049763;28;20086;-59
2022/08/27 02:56:36;;;;;;;0.00;0.00;;;;;;;;;;5049870;28;20107;-59
2022/08/27 02:59:02;;;;;;;0.00;0.00;;;;;;;;;;5050424;28;20321;-59
2022/08/27 03:01:27;;;;;;;0.00;0.00;;;;;;;;;;5050968;28;20025;-59
2022/08/27 03:03:53;;;;;;;0.00;0.00;;;;;;;;;;5050657;28;20039;-59
2022/08/27 03:06:18;;;;;;;0.10;0.10;;;;;;;;;;5050976;28;20029;-59
2022/08/27 03:08:43;;;;;;;0.13;0.13;;;;;;;;;;5050819;28;20082;-59
2022/08/27 03:11:08;;;;;;;0.32;0.32;;;;;;;;;;5050455;28;20025;-59
2022/08/27 03:13:35;;;;;;;0.00;0.00;;;;;;;;;;5050693;28;20128;-60
2022/08/27 03:16:00;;;;;;;0.00;0.00;;;;;;;;;;5050395;28;20052;-59
2022/08/27 03:18:25;;;;;;;0.00;0.00;;;;;;;;;;5052240;28;20360;-59
2022/08/27 03:20:52;;;;;;;3.72;2.45;;;;;;;;;;5050131;28;20032;-58
2022/08/27 03:23:18;;;;;;;0.38;0.38;;;;;;;;;;5049673;28;20029;-59
2022/08/27 03:25:54;;;;;;;1.20;1.10;;;;;;;;;;5050565;28;20028;-60
2022/08/27 03:28:21;;;;;;;0.00;0.00;;;;;;;;;;5050611;28;20029;-58
2022/08/27 03:30:47;;;;;;;0.75;0.73;;;;;;;;;;5050265;28;20029;-59
2022/08/27 03:33:12;;;;;;;0.10;0.10;;;;;;;;;;5050268;28;20498;-59
2022/08/27 03:35:37;;;;;;;0.00;0.00;;;;;;;;;;5050571;28;20100;-59
2022/08/27 03:38:02;;;;;;;0.00;0.00;;;;;;;;;;5050150;28;20458;-59
2022/08/27 03:40:28;;;;;;;0.00;0.00;;;;;;;;;;5050336;28;20526;-59
2022/08/27 03:42:53;;;;;;;0.10;0.10;;;;;;;;;;5049527;28;20034;-59
2022/08/27 03:45:18;;;;;;;0.00;0.00;;;;;;;;;;5050452;28;20111;-60
2022/08/27 03:47:44;;;;;;;0.03;0.03;;;;;;;;;;5050225;28;20029;-60
2022/08/27 03:50:09;;;;;;;0.33;0.33;;;;;;;;;;5049427;28;20025;-58
2022/08/27 03:52:35;;;;;;;0.00;0.00;;;;;;;;;;5048818;28;20278;-59
2022/08/27 03:55:00;;;;;;;0.52;0.52;;;;;;;;;;5049310;28;20021;-58
2022/08/27 03:57:26;;;;;;;0.38;0.38;;;;;;;;;;5049630;28;20075;-59
2022/08/27 03:59:51;;;;;;;0.00;0.00;;;;;;;;;;5050801;28;20044;-59
2022/08/27 04:02:17;;;;;;;0.93;0.93;;;;;;;;;;5049676;28;20500;-58
2022/08/27 04:04:43;;;;;;;0.10;0.10;;;;;;;;;;5049496;28;20027;-58
2022/08/27 04:07:09;;;;;;;0.63;0.57;;;;;;;;;;5049337;28;20032;-59
2022/08/27 04:09:34;;;;;;;0.10;0.10;;;;;;;;;;5049869;28;20060;-59
2022/08/27 04:11:59;;;;;;;0.68;0.68;;;;;;;;;;5048776;28;20445;-59
2022/08/27 04:14:25;;;;;;;0.00;0.00;;;;;;;;;;5051068;28;20028;-60
2022/08/27 04:16:50;;;;;;;0.00;0.00;;;;;;;;;;5049058;28;20104;-60
2022/08/27 04:19:15;;;;;;;3.38;3.08;;;;;;;;;;5049815;28;20270;-60
2022/08/27 04:21:41;;;;;;;0.43;0.43;;;;;;;;;;5048303;28;20066;-60
2022/08/27 04:24:06;;;;;;;0.10;0.10;;;;;;;;;;5049202;28;20021;-60
2022/08/27 04:26:31;;;;;;;0.73;0.73;;;;;;;;;;5048104;28;20028;-60
2022/08/27 04:28:57;;;;;;;0.00;0.00;;;;;;;;;;5048804;28;20020;-60
2022/08/27 04:31:22;;;;;;;0.00;0.00;;;;;;;;;;5049181;28;20052;-59
2022/08/27 04:33:48;;;;;;;0.00;0.00;;;;;;;;;;5049362;28;20111;-59
2022/08/27 04:36:13;;;;;;;0.08;0.08;;;;;;;;;;5048338;28;20021;-59
2022/08/27 04:38:38;;;;;;;0.55;0.55;;;;;;;;;;5049112;28;20788;-59
2022/08/27 04:41:26;;;;;;;0.63;0.63;;;;;;;;;;5048526;28;20458;-59
2022/08/27 04:43:53;;;;;;;0.10;0.10;;;;;;;;;;5048746;28;20021;-59
2022/08/27 04:46:22;;;;;;;4.85;0.30;;;;;;;;;;5048921;28;20045;-59
2022/08/27 04:48:47;;;;;;;;;;;;;;;;;;5049424;28;20108;-59
2022/08/27 04:51:13;;;;;;;0.10;0.10;;;;;;;;;;5047230;28;20011;-59
2022/08/27 04:53:38;;;;;;;0.10;0.10;;;;;;;;;;5049119;28;20063;-59
2022/08/27 04:56:03;;;;;;;0.20;0.20;;;;;;;;;;5047927;28;20322;-59
2022/08/27 04:58:29;;;;;;;2.28;1.02;;;;;;;;;;5047485;28;20504;-59
2022/08/27 05:00:55;;;;;;;0.00;0.00;;;;;;;;;;5048366;28;20500;-58
2022/08/27 05:03:22;;;;;;;0.55;0.55;;;;;;;;;;5048736;28;20493;-59
2022/08/27 05:05:48;;;;;;;0.00;0.00;;;;;;;;;;5048810;28;20100;-59
2022/08/27 05:08:13;;;;;;;0.50;0.43;;;;;;;;;;5048318;28;20124;-58
2022/08/27 05:10:43;;;;;;;0.30;0.30;;;;;;;;;;5048879;28;20466;-59
2022/08/27 05:13:09;;;;;;;1.27;1.17;;;;;;;;;;5047975;28;20032;-58
2022/08/27 05:15:35;;;;;;;0.10;0.10;;;;;;;;;;5048632;28;20029;-59
2022/08/27 05:18:01;;;;;;;1.35;1.35;;;;;;;;;;5047170;28;20096;-60
2022/08/27 05:20:26;;;;;;;0.03;0.03;;;;;;;;;;5054519;28;20024;-60
2022/08/27 05:22:52;;;;;;;5.63;4.68;;;;;;;;;;5054769;28;20036;-60
2022/08/27 05:25:17;;;;;;;0.13;0.13;;;;;;;;;;5055275;28;20347;-59
2022/08/27 05:27:42;;;;;;;0.00;0.00;;;;;;;;;;5055228;28;20013;-60
2022/08/27 05:30:08;;;;;;;0.10;0.10;;;;;;;;;;5054945;28;20349;-59
2022/08/27 05:32:33;;;;;;;0.65;0.65;;;;;;;;;;5055338;28;20024;-59
2022/08/27 05:34:58;;;;;;;0.52;0.52;;;;;;;;;;5054722;28;20033;-60
2022/08/27 05:37:24;;;;;;;0.95;0.95;;;;;;;;;;5053901;28;20115;-59
2022/08/27 05:39:49;;;;;;;2.60;1.08;;;;;;;;;;5054906;28;20013;-59
2022/08/27 05:42:14;;;;;;;3.03;1.65;;;;;;;;;;5054444;28;20017;-59
2022/08/27 05:44:39;;;;;;;0.75;0.75;;;;;;;;;;5054951;28;20040;-59
2022/08/27 05:47:04;;;;;;;0.68;0.25;;;;;;;;;;5053845;28;20123;-59
2022/08/27 05:49:30;;;;;;;0.75;0.73;;;;;;;;;;5054916;28;20055;-59
2022/08/27 05:51:56;;;;;;;0.00;0.00;;;;;;;;;;5054489;28;20112;-59
2022/08/27 05:54:21;;;;;;;3.05;2.03;;;;;;;;;;5054971;28;20040;-61
2022/08/27 05:56:48;;;;;;;1.02;1.02;;;;;;;;;;5054717;28;20068;-58
2022/08/27 06:01:57;;;;;;;7.53;2.83;;;;;;;;;;5054796;28;20032;-59
2022/08/27 06:04:23;;;;;;;0.10;0.10;;;;;;;;;;5054928;28;20017;-59
2022/08/27 06:06:50;;;;;;;1.35;1.17;;;;;;;;;;5055144;28;20291;-59
2022/08/27 06:09:17;;;;;;;0.65;0.60;;;;;;;;;;5054431;28;20639;-59
2022/08/27 06:11:42;;;;;;;0.00;0.00;;;;;;;;;;5053446;28;20020;-58
2022/08/27 06:14:08;;;;;;;4.18;0.70;;;;;;;;;;5054140;28;20487;-58
2022/08/27 06:16:33;;;;;;;0.00;0.00;;;;;;;;;;5053760;28;20036;-59
2022/08/27 06:18:59;;;;;;;0.00;0.00;;;;;;;;;;5054241;28;20461;-59
2022/08/27 06:21:24;;;;;;;0.52;0.52;;;;;;;;;;5055008;28;20388;-59
2022/08/27 06:23:50;;;;;;;0.45;0.45;;;;;;;;;;5054569;28;20374;-59
2022/08/27 06:26:16;;;;;;;0.60;0.52;;;;;;;;;;5054347;28;20075;-59
2022/08/27 06:28:41;;;;;;;0.17;0.17;;;;;;;;;;5054368;28;20363;-58
2022/08/27 06:31:08;;;;;;;0.05;0.05;;;;;;;;;;5050995;28;20036;-60
2022/08/27 06:33:33;;;;;;;0.08;0.08;;;;;;;;;;5051581;28;20454;-60
2022/08/27 06:35:59;;;;;;;0.85;0.45;;;;;;;;;;5052579;28;20031;-59
2022/08/27 06:38:25;;;;;;;2.03;0.22;;;;;;;;;;5051572;28;20055;-59
2022/08/27 06:40:51;;;;;;;3.05;2.17;;;;;;;;;;5051553;28;20462;-59
2022/08/27 06:43:16;;;;;;;0.30;0.30;;;;;;;;;;5050519;28;20075;-59
2022/08/27 06:45:41;;;;;;;0.00;0.00;;;;;;;;;;5050210;28;20335;-59
2022/08/27 06:48:06;;;;;;;0.00;0.00;;;;;;;;;;5050751;28;20275;-58
2022/08/27 06:50:36;;;;;;;0.10;0.10;;;;;;;;;;5052145;28;20351;-59
2022/08/27 06:53:01;;;;;;;0.00;0.00;;;;;;;;;;5050257;28;20037;-58
2022/08/27 06:55:26;;;;;;;2.63;0.80;;;;;;;;;;5051149;28;20066;-59
2022/08/27 06:57:51;;;;;;;1.23;1.17;;;;;;;;;;5051518;28;20128;-59
2022/08/27 07:00:17;;;;;;;0.67;0.67;;;;;;;;;;5051973;28;20090;-59
2022/08/27 07:02:42;;;;;;;0.00;0.00;;;;;;;;;;5051570;28;20819;-59
2022/08/27 07:05:08;;;;;;;0.98;0.98;;;;;;;;;;5050926;28;20036;-59
2022/08/27 07:07:33;;;;;;;0.05;0.05;;;;;;;;;;5050923;28;20155;-59
2022/08/27 07:09:58;;;;;;;0.45;0.43;;;;;;;;;;5051189;28;20096;-60
2022/08/27 07:12:24;;;;;;;1.20;1.17;;;;;;;;;;5050491;28;20397;-60
2022/08/27 07:14:49;;;;;;;3.65;1.15;;;;;;;;;;5049710;28;20280;-60
2022/08/27 07:17:16;;;;;;;0.30;0.30;;;;;;;;;;5051614;28;20151;-58
2022/08/27 07:19:41;;;;;;;0.28;0.28;;;;;;;;;;5050520;28;20044;-59
2022/08/27 07:22:06;;;;;;;0.00;0.00;;;;;;;;;;5051245;28;20094;-59
2022/08/27 07:24:32;;;;;;;0.30;0.30;;;;;;;;;;5048778;28;20043;-59
2022/08/27 07:26:57;;;;;;;1.13;1.13;;;;;;;;;;5050962;28;20685;-60
2022/08/27 07:29:23;;;;;;;0.00;0.00;;;;;;;;;;5050638;28;20125;-59
2022/08/27 07:31:48;;;;;;;0.00;0.00;;;;;;;;;;5051543;28;20159;-59
2022/08/27 07:34:13;;;;;;;0.00;0.00;;;;;;;;;;5049749;28;20106;-59
2022/08/27 07:36:39;;;;;;;0.00;0.00;;;;;;;;;;5050641;28;20396;-59
2022/08/27 07:39:05;;;;;;;0.15;0.15;;;;;;;;;;5050451;28;20424;-59
2022/08/27 07:41:31;;;;;;;0.30;0.30;;;;;;;;;;5049745;28;20017;-59
2022/08/27 07:46:44;;;;;;;0.00;0.00;;;;;;;;;;5050401;28;20027;-59
2022/08/27 07:49:10;;;;;;;0.40;0.40;;;;;;;;;;5049491;28;20120;-58
2022/08/27 07:51:36;;;;;;;0.10;0.10;;;;;;;;;;5051351;28;20509;-59
2022/08/27 07:54:02;;;;;;;0.57;0.57;;;;;;;;;;5049290;28;20039;-58
2022/08/27 07:56:28;;;;;;;0.98;0.65;;;;;;;;;;5050107;28;20593;-59
2022/08/27 07:58:53;;;;;;;1.60;0.75;;;;;;;;;;5050532;28;20178;-59
2022/08/27 08:01:18;;;;;;;10.50;1.75;;;;;;;;;;5050977;28;20104;-59
2022/08/27 08:03:43;;;;;;;1.05;1.05;;;;;;;;;;5049618;28;20429;-58
2022/08/27 08:06:10;;;;;;;1.25;1.25;;;;;;;;;;5049226;28;20025;-59
2022/08/27 08:08:38;;;;;;;0.85;0.85;;;;;;;;;;5050093;28;20025;-59
2022/08/27 08:11:04;;;;;;;0.00;0.00;;;;;;;;;;5048833;28;20539;-58
2022/08/27 08:13:30;;;;;;;0.10;0.10;;;;;;;;;;5049261;28;20028;-61
2022/08/27 08:15:56;;;;;;;0.70;0.70;;;;;;;;;;5049765;28;20084;-59
2022/08/27 08:18:21;;;;;;;0.35;0.35;;;;;;;;;;5048990;28;20137;-59
2022/08/27 08:20:46;;;;;;;0.00;0.00;;;;;;;;;;5047742;28;20025;-60
2022/08/27 08:23:11;;;;;;;8.57;1.75;;;;;;;;;;5051386;28;20029;-59
2022/08/27 08:25:37;;;;;;;1.20;0.43;;;;;;;;;;5049584;28;20027;-60
2022/08/27 08:28:02;;;;;;;3.38;1.17;;;;;;;;;;5048794;28;20038;-60
2022/08/27 08:30:27;;;;;;;0.13;0.13;;;;;;;;;;5050046;28;20077;-59
2022/08/27 08:32:53;;;;;;;0.38;0.38;;;;;;;;;;5048573;28;20028;-59
2022/08/27 08:35:18;;;;;;;1.35;0.75;;;;;;;;;;5048478;28;20100;-60
2022/08/27 08:37:44;;;;;;;0.40;0.20;;;;;;;;;;5049453;28;20137;-60
2022/08/27 08:40:19;;;;;;;0.60;0.25;;;;;;;;;;5047800;28;20477;-59
2022/08/27 08:42:45;;;;;;;2.15;0.85;;;;;;;;;;5048980;28;20020;-59
2022/08/27 08:45:13;;;;;;;2.20;2.08;;;;;;;;;;5048491;28;20024;-60
2022/08/27 08:47:50;;;;;;;0.57;0.57;;;;;;;;;;5047963;28;20021;-59
2022/08/27 08:50:19;;;;;;;0.00;0.00;;;;;;;;;;5047635;28;20086;-59
2022/08/27 08:52:51;;;;;;;2.70;1.48;;;;;;;;;;5048031;28;20066;-60
2022/08/27 08:55:35;;;;;;;0.65;0.65;;;;;;;;;;5045589;28;20055;-60
2022/08/27 08:58:09;;;;;;;0.00;0.00;;;;;;;;;;5048317;28;20039;-60
2022/08/27 09:00:36;;;;;;;0.00;0.00;;;;;;;;;;5049477;28;20099;-60
2022/08/27 09:03:01;;;;;;;0.00;0.00;;;;;;;;;;5049399;28;20070;-60
2022/08/27 09:05:26;;;;;;;0.32;0.32;;;;;;;;;;5048705;28;20371;-61
2022/08/27 09:07:51;;;;;;;0.73;0.73;;;;;;;;;;5047582;28;20037;-61
2022/08/27 09:10:23;;;;;;;0.10;0.10;;;;;;;;;;5045749;28;20453;-61
2022/08/27 09:12:50;;;;;;;1.13;0.82;;;;;;;;;;5048644;28;20309;-62
2022/08/27 09:15:18;;;;;;;0.63;0.35;;;;;;;;;;5047601;28;20024;-61
2022/08/27 09:17:44;;;;;;;0.00;0.00;;;;;;;;;;5049024;28;20048;-62
2022/08/27 09:20:10;;;;;;;1.85;1.38;;;;;;;;;;5049268;28;20055;-62
2022/08/27 09:22:38;;;;;;;0.40;0.40;;;;;;;;;;5046796;28;20017;-61
2022/08/27 09:25:16;;;;;;;1.17;1.17;;;;;;;;;;5043414;28;20390;-61
2022/08/27 09:27:41;;;;;;;0.32;0.32;;;;;;;;;;5049114;28;20433;-62
2022/08/27 09:30:12;;;;;;;0.40;0.40;;;;;;;;;;5048147;28;20060;-62
2022/08/27 09:32:38;;;;;;;0.00;0.00;;;;;;;;;;5048630;28;20025;-62
2022/08/27 09:35:04;;;;;;;0.75;0.73;;;;;;;;;;5048351;28;20101;-62
2022/08/27 09:37:31;;;;;;;0.15;0.15;;;;;;;;;;5047375;28;20032;-63
2022/08/27 09:40:04;;;;;;;11.18;2.47;;;;;;;;;;5048026;28;20713;-61
2022/08/27 09:42:51;;;;;;;0.22;0.22;;;;;;;;;;5047996;28;20066;-62
2022/08/27 09:45:22;;;;;;;0.30;0.22;;;;;;;;;;5047696;28;20032;-61
2022/08/27 09:47:49;;;;;;;0.00;0.00;;;;;;;;;;5048065;28;20474;-62
2022/08/27 09:50:16;;;;;;;5.00;1.27;;;;;;;;;;5047858;28;20033;-62
2022/08/27 09:52:55;;;;;;;0.00;0.00;;;;;;;;;;5048353;28;20033;-62
2022/08/27 09:55:39;;;;;;;0.43;0.43;;;;;;;;;;5048028;28;20359;-62
2022/08/27 09:58:14;;;;;;;0.00;0.00;;;;;;;;;;5047519;28;20065;-61
2022/08/27 10:00:39;;;;;;;0.43;0.43;;;;;;;;;;5048403;28;20481;-63
2022/08/27 10:03:06;;;;;;;0.47;0.47;;;;;;;;;;5047867;28;20116;-62
2022/08/27 10:05:35;;;;;;;0.03;0.03;;;;;;;;;;5049642;28;20428;-62
2022/08/27 10:08:03;;;;;;;0.32;0.20;;;;;;;;;;5050293;28;20397;-61
2022/08/27 10:10:37;;;;;;;0.00;0.00;;;;;;;;;;5051665;28;20036;-62
2022/08/27 10:13:09;;;;;;;0.52;0.30;;;;;;;;;;5049825;28;20022;-62
2022/08/27 10:15:50;;;;;;;1.58;1.48;;;;;;;;;;5051178;28;20381;-62
2022/08/27 10:18:26;;;;;;;1.05;0.73;;;;;;;;;;5050031;28;20048;-62
2022/08/27 10:20:59;;;;;;;0.40;0.30;;;;;;;;;;5051701;28;20067;-62
2022/08/27 10:23:33;;;;;;;1.45;1.45;;;;;;;;;;5049740;28;20047;-62
2022/08/27 10:26:18;;;;;;;0.03;0.03;;;;;;;;;;5051137;28;20749;-63
2022/08/27 10:29:02;;;;;;;0.00;0.00;;;;;;;;;;5049537;28;20025;-62
2022/08/27 10:31:33;;;;;;;0.73;0.73;;;;;;;;;;5049762;28;20363;-62
2022/08/27 10:33:58;;;;;;;0.00;0.00;;;;;;;;;;5049827;28;20478;-61
2022/08/27 10:36:29;;;;;;;0.17;0.17;;;;;;;;;;5048990;28;20114;-63
2022/08/27 10:39:00;;;;;;;0.20;0.20;;;;;;;;;;5049945;28;20259;-62
2022/08/27 10:41:32;;;;;;;0.32;0.32;;;;;;;;;;5049831;28;20021;-62
2022/08/27 10:44:16;;;;;;;0.52;0.52;;;;;;;;;;5050352;28;20389;-62
2022/08/27 10:46:44;;;;;;;2.28;0.52;;;;;;;;;;5049926;28;20062;-62
2022/08/27 10:49:10;;;;;;;0.63;0.40;;;;;;;;;;5049394;28;20508;-62
2022/08/27 10:51:55;;;;;;;2.43;1.90;;;;;;;;;;5048632;28;20021;-62
2022/08/27 10:54:26;;;;;;;0.35;0.35;;;;;;;;;;5048147;28;20283;-62
2022/08/27 10:57:07;;;;;;;0.03;0.03;;;;;;;;;;5050102;28;20055;-62
2022/08/27 10:59:38;;;;;;;0.00;0.00;;;;;;;;;;5049655;28;20025;-62
2022/08/27 11:02:03;;;;;;;1.55;1.45;;;;;;;;;;5049660;28;20362;-62
2022/08/27 11:04:31;;;;;;;0.40;0.40;;;;;;;;;;5048891;28;20017;-63
2022/08/27 11:06:59;;;;;;;0.45;0.35;;;;;;;;;;5050065;28;20279;-63
2022/08/27 11:09:40;;;;;;;1.00;1.00;;;;;;;;;;5048561;28;20402;-61
2022/08/27 11:12:06;;;;;;;0.10;0.10;;;;;;;;;;5047515;28;20036;-61
2022/08/27 11:14:38;;;;;;;0.88;0.30;;;;;;;;;;5049504;28;20453;-62
2022/08/27 11:17:07;;;;;;;0.00;0.00;;;;;;;;;;5048753;28;20374;-61
2022/08/27 11:19:32;;;;;;;;;;;;;;;;;;5050583;28;20029;-61
2022/08/27 11:22:06;;;;;;;0.45;0.45;;;;;;;;;;5049940;28;19924;-62
2022/08/27 11:24:44;;;;;;;0.25;0.25;;;;;;;;;;5050401;28;20031;-62
2022/08/27 11:27:10;;;;;;;0.15;0.15;;;;;;;;;;5050245;28;20119;-62
2022/08/27 11:29:43;;;;;;;0.60;0.50;;;;;;;;;;5050327;28;20032;-62
2022/08/27 11:32:20;;;;;;;0.93;0.93;;;;;;;;;;5049543;28;20355;-62
2022/08/27 11:34:52;;;;;;;0.38;0.22;;;;;;;;;;5049933;28;20032;-62
2022/08/27 11:37:36;;;;;;;0.00;0.00;;;;;;;;;;5049669;28;20029;-62
2022/08/27 11:40:24;;;;;;;0.10;0.10;;;;;;;;;;5050025;28;20021;-62
2022/08/27 11:43:09;;;;;;;0.52;0.30;;;;;;;;;;5050393;28;20021;-61
2022/08/27 11:45:49;;;;;;;0.75;0.75;;;;;;;;;;5049727;28;20494;-61
2022/08/27 11:48:20;;;;;;;0.35;0.35;;;;;;;;;;5048449;28;20043;-62
2022/08/27 11:50:57;;;;;;;1.15;1.15;;;;;;;;;;5049770;28;20051;-62
2022/08/27 11:53:23;;;;;;;0.00;0.00;;;;;;;;;;5049470;28;20032;-62
2022/08/27 11:55:49;;;;;;;0.30;0.30;;;;;;;;;;5049450;28;20071;-62
2022/08/27 11:58:17;;;;;;;2.95;1.23;;;;;;;;;;5049654;28;20025;-62
2022/08/27 12:00:44;;;;;;;0.43;0.43;;;;;;;;;;5049381;28;20021;-62
2022/08/27 12:03:18;;;;;;;4.88;1.73;;;;;;;;;;5047956;28;20021;-62
2022/08/27 12:05:48;;;;;;;0.55;0.55;;;;;;;;;;5049036;28;20025;-62
2022/08/27 12:08:15;;;;;;;0.52;0.32;;;;;;;;;;5049294;28;20020;-62
2022/08/27 12:10:58;;;;;;;3.50;0.35;;;;;;;;;;5049500;28;20017;-62
2022/08/27 12:13:42;;;;;;;1.13;1.13;;;;;;;;;;5048816;28;20032;-62
2022/08/27 12:16:11;;;;;;;0.10;0.10;;;;;;;;;;5049000;28;20025;-61
2022/08/27 12:18:45;;;;;;;0.00;0.00;;;;;;;;;;5049173;28;20017;-62
2022/08/27 12:21:10;;;;;;;0.00;0.00;;;;;;;;;;5048864;28;20454;-62
2022/08/27 12:23:43;;;;;;;0.53;0.53;;;;;;;;;;5048996;28;20031;-62
2022/08/27 12:26:22;;;;;;;5.22;0.70;;;;;;;;;;5048252;28;20255;-61
2022/08/27 12:28:47;;;;;;;0.00;0.00;;;;;;;;;;5048377;28;20082;-62
2022/08/27 12:31:18;;;;;;;0.50;0.50;;;;;;;;;;5047223;28;20421;-61
2022/08/27 12:33:49;;;;;;;0.80;0.13;;;;;;;;;;5048045;28;20103;-61
2022/08/27 12:36:25;;;;;;;0.00;0.00;;;;;;;;;;5048223;28;20017;-62
2022/08/27 12:38:52;;;;;;;0.47;0.47;;;;;;;;;;5046982;28;20048;-61
2022/08/27 12:41:25;;;;;;;0.45;0.45;;;;;;;;;;5048546;28;20496;-62
2022/08/27 12:44:00;;;;;;;0.00;0.00;;;;;;;;;;5050587;28;20353;-62
2022/08/27 12:46:27;;;;;;;1.35;0.85;;;;;;;;;;5048395;28;20040;-61
2022/08/27 12:48:56;;;;;;;0.10;0.10;;;;;;;;;;5048505;28;20390;-61
2022/08/27 12:51:26;;;;;;;0.03;0.03;;;;;;;;;;5047979;28;20387;-62
2022/08/27 12:54:04;;;;;;;0.13;0.13;;;;;;;;;;5048717;28;20053;-62
2022/08/27 12:56:48;;;;;;;2.00;1.45;;;;;;;;;;5048357;28;20043;-63
2022/08/27 12:59:32;;;;;;;0.25;0.25;;;;;;;;;;5047126;28;20053;-61
2022/08/27 13:02:08;;;;;;;0.28;0.28;;;;;;;;;;5048317;28;20025;-61
2022/08/27 13:04:36;;;;;;;0.25;0.25;;;;;;;;;;5048958;28;20098;-61
2022/08/27 13:07:01;;;;;;;0.82;0.82;;;;;;;;;;5047907;28;20060;-62
2022/08/27 13:09:27;;;;;;;0.30;0.30;;;;;;;;;;5048084;28;20067;-62
2022/08/27 13:11:55;;;;;;;0.00;0.00;;;;;;;;;;5048107;28;20123;-62
2022/08/27 13:14:21;;;;;;;0.63;0.63;;;;;;;;;;5047760;28;20087;-62
2022/08/27 13:16:54;;;;;;;1.80;1.73;;;;;;;;;;5049762;28;20469;-62
2022/08/27 13:19:23;;;;;;;0.00;0.00;;;;;;;;;;5047981;28;20020;-61
2022/08/27 13:21:49;;;;;;;2.00;1.05;;;;;;;;;;5046750;28;20025;-62
2022/08/27 13:24:17;;;;;;;0.45;0.45;;;;;;;;;;5047815;28;20032;-62
2022/08/27 13:26:46;;;;;;;2.45;1.42;;;;;;;;;;5048108;28;20436;-62
2022/08/27 13:29:12;;;;;;;0.00;0.00;;;;;;;;;;5046976;28;20659;-62
2022/08/27 13:31:37;;;;;;;0.10;0.10;;;;;;;;;;5048139;28;20082;-62
2022/08/27 13:34:03;;;;;;;1.08;1.08;;;;;;;;;;5047746;28;20100;-63
2022/08/27 13:36:48;;;;;;;2.00;1.90;;;;;;;;;;5047893;28;20021;-63
2022/08/27 13:39:13;;;;;;;0.03;0.03;;;;;;;;;;5047510;28;20013;-61
2022/08/27 13:41:39;;;;;;;2.35;0.45;;;;;;;;;;5051372;28;20058;-61
2022/08/27 13:44:07;;;;;;;2.20;2.00;;;;;;;;;;5052158;28;20025;-62
2022/08/27 13:46:32;;;;;;;1.35;1.35;;;;;;;;;;5052013;28;20028;-62
2022/08/27 13:48:58;;;;;;;0.32;0.32;;;;;;;;;;5051946;28;20029;-62
2022/08/27 13:51:30;;;;;;;2.92;2.45;;;;;;;;;;5051504;28;20095;-62
2022/08/27 13:54:11;;;;;;;1.33;0.80;;;;;;;;;;5051873;28;20401;-62
2022/08/27 13:56:38;;;;;;;0.00;0.00;;;;;;;;;;5050885;28;20066;-62
2022/08/27 13:59:10;;;;;;;0.52;0.20;;;;;;;;;;5051469;28;20017;-62
2022/08/27 14:01:35;;;;;;;0.00;0.00;;;;;;;;;;5051288;28;20154;-61
2022/08/27 14:04:07;;;;;;;0.00;0.00;;;;;;;;;;5051941;28;20494;-60
2022/08/27 14:06:38;;;;;;;0.40;0.40;;;;;;;;;;5052001;28;20120;-61
2022/08/27 14:09:08;;;;;;;1.70;0.95;;;;;;;;;;5051238;28;20056;-62
2022/08/27 14:11:34;;;;;;;0.00;0.00;;;;;;;;;;5052153;28;20033;-62
2022/08/27 14:13:59;;;;;;;1.23;1.13;;;;;;;;;;5051065;28;20478;-61
2022/08/27 14:16:28;;;;;;;0.40;0.40;;;;;;;;;;5051130;28;20060;-61
2022/08/27 14:19:01;;;;;;;0.10;0.10;;;;;;;;;;5051822;28;20083;-62
2022/08/27 14:21:26;;;;;;;0.88;0.80;;;;;;;;;;5052479;28;20020;-62
2022/08/27 14:23:52;;;;;;;1.63;1.52;;;;;;;;;;5051480;28;20146;-61
2022/08/27 14:26:18;;;;;;;0.00;0.00;;;;;;;;;;5049723;28;20394;-61
2022/08/27 14:28:44;;;;;;;0.00;0.00;;;;;;;;;;5051339;28;20017;-62
2022/08/27 14:31:10;;;;;;;0.10;0.10;;;;;;;;;;5051003;28;20021;-61
2022/08/27 14:33:35;;;;;;;1.50;1.35;;;;;;;;;;5051692;28;20370;-62
2022/08/27 14:36:01;;;;;;;0.28;0.28;;;;;;;;;;5051001;28;20059;-61
2022/08/27 14:38:29;;;;;;;0.68;0.68;;;;;;;;;;5050695;28;20051;-62
2022/08/27 14:40:54;;;;;;;0.00;0.00;;;;;;;;;;5052334;28;20031;-62
2022/08/27 14:43:19;;;;;;;0.10;0.10;;;;;;;;;;5051083;28;20020;-61
2022/08/27 14:45:46;;;;;;;0.28;0.28;;;;;;;;;;5050997;28;20118;-61
2022/08/27 14:48:13;;;;;;;0.95;0.95;;;;;;;;;;5050243;28;20032;-62
2022/08/27 14:50:39;;;;;;;0.20;0.20;;;;;;;;;;5050861;28;20017;-62
2022/08/27 14:53:04;;;;;;;0.28;0.28;;;;;;;;;;5049930;28;20477;-62